createdAt,value
2017-10-12T00:02:23.400Z,10.40
2017-10-12T00:04:50.944Z,9.23
2017-10-12T00:07:18.490Z,10.13
2017-10-12T00:09:46.017Z,10.17
2017-10-12T00:12:15.462Z,9.57
2017-10-12T00:14:44.665Z,8.80
2017-10-12T00:17:12.216Z,9.77
2017-10-12T00:19:40.519Z,9.07
2017-10-12T00:22:08.267Z,10.20
2017-10-12T00:24:35.855Z,7.50
2017-10-12T00:27:04.678Z,8.68
2017-10-12T00:29:32.177Z,8.63
2017-10-12T00:31:59.946Z,8.27
2017-10-12T00:34:28.382Z,9.10
2017-10-12T00:36:55.940Z,7.50
2017-10-12T00:39:23.449Z,7.97
2017-10-12T00:41:51.118Z,8.60
2017-10-12T00:44:18.778Z,7.67
2017-10-12T00:46:46.279Z,7.75
2017-10-12T00:49:13.843Z,7.60
2017-10-12T00:51:42.378Z,7.30
2017-10-12T00:54:09.883Z,7.90
2017-10-12T00:56:37.445Z,7.20
2017-10-12T00:59:04.949Z,7.60
2017-10-12T01:01:32.448Z,7.70
2017-10-12T01:04:03.955Z,8.87
2017-10-12T01:06:32.950Z,7.65
2017-10-12T01:09:00.481Z,8.78
2017-10-12T01:11:28.758Z,7.80
2017-10-12T01:13:56.315Z,8.80
2017-10-12T01:16:28.604Z,7.37
2017-10-12T01:18:56.730Z,6.72
2017-10-12T01:21:24.234Z,6.93
2017-10-12T01:23:51.914Z,7.20
2017-10-12T01:26:19.436Z,6.30
2017-10-12T01:28:47.719Z,7.63
2017-10-12T01:31:16.419Z,7.47
2017-10-12T01:33:43.928Z,6.50
2017-10-12T01:36:11.463Z,7.35
2017-10-12T01:38:38.983Z,7.40
2017-10-12T01:41:07.304Z,7.60
2017-10-12T01:43:35.835Z,7.75
2017-10-12T01:46:04.095Z,8.40
2017-10-12T01:48:47.984Z,7.97
2017-10-12T01:51:15.492Z,7.43
2017-10-12T01:53:43.190Z,7.53
2017-10-12T01:56:10.773Z,9.80
2017-10-12T01:58:38.283Z,8.50
2017-10-12T02:01:05.855Z,8.97
2017-10-12T02:03:37.029Z,8.25
2017-10-12T02:06:04.552Z,8.57
2017-10-12T02:08:33.396Z,8.00
2017-10-12T02:11:01.446Z,8.95
2017-10-12T02:13:28.943Z,9.40
2017-10-12T02:15:56.487Z,8.83
2017-10-12T02:18:27.581Z,10.83
2017-10-12T02:20:55.127Z,9.50
2017-10-12T02:23:23.406Z,9.97
2017-10-12T02:25:51.127Z,9.30
2017-10-12T02:28:18.940Z,8.90
2017-10-12T02:30:46.979Z,9.57
2017-10-12T02:33:14.507Z,8.47
2017-10-12T02:35:45.332Z,9.73
2017-10-12T02:38:12.892Z,9.40
2017-10-12T02:40:40.754Z,9.20
2017-10-12T02:43:08.263Z,9.68
2017-10-12T02:45:35.780Z,9.68
2017-10-12T02:48:06.600Z,9.02
2017-10-12T02:50:34.364Z,8.57
2017-10-12T02:53:01.910Z,8.50
2017-10-12T02:55:29.788Z,9.45
2017-10-12T02:57:57.335Z,9.00
2017-10-12T03:00:25.343Z,9.07
2017-10-12T03:02:52.849Z,9.23
2017-10-12T03:05:20.393Z,7.80
2017-10-12T03:07:47.946Z,15.15
2017-10-12T03:10:15.470Z,10.47
2017-10-12T03:12:44.254Z,10.05
2017-10-12T03:15:11.755Z,9.75
2017-10-12T03:17:39.291Z,7.90
2017-10-12T03:20:07.711Z,8.03
2017-10-12T03:22:35.268Z,8.47
2017-10-12T03:25:02.780Z,8.50
2017-10-12T03:27:30.691Z,8.63
2017-10-12T03:29:59.041Z,8.40
2017-10-12T03:32:27.567Z,8.35
2017-10-12T03:34:55.100Z,7.83
2017-10-12T03:37:22.621Z,9.18
2017-10-12T03:39:50.172Z,9.15
2017-10-12T03:42:17.729Z,8.65
2017-10-12T03:44:45.264Z,7.87
2017-10-12T03:47:13.576Z,9.30
2017-10-12T03:49:44.146Z,9.70
2017-10-12T03:52:11.655Z,8.60
2017-10-12T03:54:39.180Z,8.93
2017-10-12T03:57:06.716Z,8.87
2017-10-12T03:59:34.256Z,9.27
2017-10-12T04:02:01.823Z,8.40
2017-10-12T04:04:30.020Z,7.53
2017-10-12T04:06:57.567Z,7.33
2017-10-12T04:09:25.100Z,7.73
2017-10-12T04:11:52.759Z,7.80
2017-10-12T04:14:20.325Z,8.37
2017-10-12T04:16:48.067Z,10.27
2017-10-12T04:19:15.567Z,8.38
2017-10-12T04:21:45.332Z,9.13
2017-10-12T04:24:12.883Z,8.70
2017-10-12T04:26:40.411Z,8.60
2017-10-12T04:29:08.579Z,10.60
2017-10-12T04:31:38.238Z,10.47
2017-10-12T04:34:05.983Z,10.87
2017-10-12T04:36:33.667Z,9.70
2017-10-12T04:39:01.206Z,10.93
2017-10-12T04:41:28.751Z,9.57
2017-10-12T04:43:57.984Z,10.87
2017-10-12T04:46:25.504Z,10.83
2017-10-12T04:48:53.817Z,11.20
2017-10-12T04:51:21.400Z,11.90
2017-10-12T04:53:49.270Z,10.30
2017-10-12T04:56:18.651Z,10.90
2017-10-12T04:58:46.213Z,11.32
2017-10-12T05:01:13.736Z,11.23
2017-10-12T05:03:41.953Z,10.88
2017-10-12T05:06:13.388Z,12.00
2017-10-12T05:08:40.912Z,11.73
2017-10-12T05:11:09.840Z,12.82
2017-10-12T05:13:37.340Z,11.07
2017-10-12T05:16:04.870Z,12.90
2017-10-12T05:18:32.439Z,10.93
2017-10-12T05:21:04.390Z,10.90
2017-10-12T05:23:31.919Z,11.53
2017-10-12T05:25:59.707Z,10.10
2017-10-12T05:28:27.265Z,10.18
2017-10-12T05:30:54.767Z,8.60
2017-10-12T05:33:22.273Z,9.68
2017-10-12T05:35:54.544Z,8.70
2017-10-12T05:38:22.047Z,8.93
2017-10-12T05:40:49.619Z,8.88
2017-10-12T05:43:17.117Z,9.87
2017-10-12T05:45:46.179Z,10.07
2017-10-12T05:48:13.724Z,10.00
2017-10-12T05:50:41.419Z,9.83
2017-10-12T05:53:08.959Z,8.77
2017-10-12T05:55:37.249Z,8.73
2017-10-12T05:58:05.039Z,9.32
2017-10-12T06:00:32.553Z,7.60
2017-10-12T06:03:01.175Z,7.13
2017-10-12T06:05:29.476Z,9.10
2017-10-12T06:07:56.983Z,8.40
2017-10-12T06:10:25.055Z,9.10
2017-10-12T06:12:53.237Z,7.28
2017-10-12T06:15:20.747Z,7.47
2017-10-12T06:17:49.820Z,7.92
2017-10-12T06:20:18.259Z,7.20
2017-10-12T06:22:46.059Z,6.27
2017-10-12T06:25:13.618Z,7.77
2017-10-12T06:27:41.127Z,7.50
2017-10-12T06:30:08.675Z,6.50
2017-10-12T06:32:36.197Z,6.87
2017-10-12T06:35:03.703Z,7.80
2017-10-12T06:37:35.996Z,7.00
2017-10-12T06:40:03.555Z,7.37
2017-10-12T06:42:31.181Z,6.30
2017-10-12T06:44:58.723Z,6.78
2017-10-12T06:47:26.267Z,6.40
2017-10-12T06:49:53.801Z,7.22
2017-10-12T06:52:22.247Z,7.45
2017-10-12T06:54:53.127Z,6.17
2017-10-12T06:57:20.639Z,7.12
2017-10-12T06:59:48.199Z,6.83
2017-10-12T07:02:15.799Z,6.20
2017-10-12T07:04:43.336Z,6.22
2017-10-12T07:07:16.280Z,5.70
2017-10-12T07:09:47.082Z,5.10
2017-10-12T07:12:14.943Z,6.30
2017-10-12T07:14:42.561Z,5.73
2017-10-12T07:17:10.141Z,3.95
2017-10-12T07:19:38.446Z,6.45
2017-10-12T07:22:05.956Z,4.53
2017-10-12T07:24:37.063Z,5.10
2017-10-12T07:27:04.851Z,4.00
2017-10-12T07:29:32.415Z,5.07
2017-10-12T07:31:59.923Z,4.77
2017-10-12T07:34:27.439Z,4.53
2017-10-12T07:36:55.018Z,4.00
2017-10-12T07:39:23.300Z,4.05
2017-10-12T07:41:51.394Z,3.53
2017-10-12T07:44:18.928Z,4.23
2017-10-12T07:46:47.200Z,4.50
2017-10-12T07:49:15.660Z,3.80
2017-10-12T07:51:43.219Z,3.92
2017-10-12T07:54:11.030Z,4.10
2017-10-12T07:56:38.543Z,3.80
2017-10-12T07:59:06.240Z,2.97
2017-10-12T08:01:36.391Z,4.00
2017-10-12T08:04:06.052Z,3.25
2017-10-12T08:06:33.562Z,4.00
2017-10-12T08:09:09.099Z,6.03
2017-10-12T08:11:36.622Z,4.55
2017-10-12T08:14:04.958Z,3.40
2017-10-12T08:16:32.459Z,3.30
2017-10-12T08:19:00.523Z,3.62
2017-10-12T08:21:28.818Z,3.75
2017-10-12T08:23:56.334Z,3.30
2017-10-12T08:26:23.871Z,3.13
2017-10-12T08:28:51.378Z,4.00
2017-10-12T08:31:19.868Z,3.75
2017-10-12T08:33:47.398Z,4.67
2017-10-12T08:36:15.220Z,4.65
2017-10-12T08:38:53.014Z,3.12
2017-10-12T08:41:20.541Z,3.33
2017-10-12T08:43:48.880Z,3.40
2017-10-12T08:46:16.415Z,3.90
2017-10-12T08:48:43.919Z,3.55
2017-10-12T08:51:12.745Z,3.03
2017-10-12T08:53:40.263Z,3.10
2017-10-12T08:56:08.578Z,3.33
2017-10-12T08:58:36.083Z,3.92
2017-10-12T09:01:04.179Z,3.67
2017-10-12T09:03:31.764Z,3.75
2017-10-12T09:05:59.276Z,4.43
2017-10-12T09:08:26.779Z,3.57
2017-10-12T09:10:54.563Z,4.23
2017-10-12T09:13:22.067Z,4.18
2017-10-12T09:15:49.573Z,4.10
2017-10-12T09:18:18.057Z,4.22
2017-10-12T09:20:45.565Z,3.67
2017-10-12T09:23:13.107Z,4.43
2017-10-12T09:25:40.607Z,4.13
2017-10-12T09:28:09.087Z,3.60
2017-10-12T09:30:36.959Z,3.70
2017-10-12T09:33:04.764Z,3.55
2017-10-12T09:35:32.275Z,3.67
2017-10-12T09:38:00.636Z,3.07
2017-10-12T09:40:31.726Z,3.47
2017-10-12T09:42:59.236Z,3.87
2017-10-12T09:45:26.746Z,3.37
2017-10-12T09:47:54.283Z,3.53
2017-10-12T09:50:21.783Z,3.77
2017-10-12T09:52:49.396Z,6.93
2017-10-12T09:55:17.676Z,3.50
2017-10-12T09:57:45.993Z,3.42
2017-10-12T10:00:13.511Z,3.80
2017-10-12T10:02:41.076Z,2.50
2017-10-12T10:05:08.603Z,3.63
2017-10-12T10:07:36.115Z,3.37
2017-10-12T10:10:03.656Z,3.03
2017-10-12T10:12:31.215Z,3.17
2017-10-12T10:15:00.109Z,3.65
2017-10-12T10:17:27.674Z,3.17
2017-10-12T10:19:55.227Z,3.30
2017-10-12T10:22:22.748Z,3.43
2017-10-12T10:24:50.306Z,3.78
2017-10-12T10:27:18.007Z,2.70
2017-10-12T10:29:45.675Z,3.07
2017-10-12T10:32:13.246Z,3.12
2017-10-12T10:34:40.760Z,3.00
2017-10-12T10:37:09.047Z,3.30
2017-10-12T10:39:38.362Z,3.20
2017-10-12T10:42:05.903Z,3.55
2017-10-12T10:44:34.318Z,3.00
2017-10-12T10:47:03.206Z,3.20
2017-10-12T10:49:30.707Z,3.53
2017-10-12T10:51:58.239Z,2.60
2017-10-12T10:54:26.427Z,2.87
2017-10-12T10:56:57.647Z,3.30
2017-10-12T10:59:25.262Z,3.90
2017-10-12T11:01:53.440Z,3.47
2017-10-12T11:04:21.918Z,3.95
2017-10-12T11:06:50.215Z,3.63
2017-10-12T11:09:17.730Z,4.25
2017-10-12T11:11:45.296Z,3.90
2017-10-12T11:14:13.563Z,3.35
2017-10-12T11:16:41.138Z,3.80
2017-10-12T11:19:09.486Z,4.07
2017-10-12T11:21:36.990Z,3.10
2017-10-12T11:24:04.532Z,3.63
2017-10-12T11:26:37.878Z,3.40
2017-10-12T11:29:05.386Z,2.62
2017-10-12T11:31:32.938Z,3.35
2017-10-12T11:34:00.872Z,3.90
2017-10-12T11:36:28.371Z,3.20
2017-10-12T11:38:55.879Z,3.43
2017-10-12T11:41:23.456Z,3.83
2017-10-12T11:43:51.103Z,4.07
2017-10-12T11:46:19.023Z,4.32
2017-10-12T11:48:46.559Z,3.50
2017-10-12T11:51:14.701Z,3.20
2017-10-12T11:53:42.298Z,3.37
2017-10-12T11:56:09.805Z,3.58
2017-10-12T11:58:37.340Z,3.40
2017-10-12T12:01:05.643Z,2.67
2017-10-12T12:03:33.708Z,3.15
2017-10-12T12:06:01.248Z,2.67
2017-10-12T12:08:29.539Z,3.33
2017-10-12T12:10:57.978Z,3.05
2017-10-12T12:13:26.144Z,2.73
2017-10-12T12:15:53.638Z,2.33
2017-10-12T12:18:21.148Z,2.45
2017-10-12T12:20:48.694Z,2.70
2017-10-12T12:23:16.208Z,2.50
2017-10-12T12:25:44.864Z,2.77
2017-10-12T12:28:12.363Z,2.60
2017-10-12T12:30:40.701Z,2.50
2017-10-12T12:33:08.269Z,3.23
2017-10-12T12:35:37.504Z,2.60
2017-10-12T12:38:05.539Z,2.83
2017-10-12T12:40:33.105Z,2.40
2017-10-12T12:43:01.547Z,2.50
2017-10-12T12:45:29.068Z,3.20
2017-10-12T12:47:56.600Z,2.57
2017-10-12T12:50:24.550Z,3.00
2017-10-12T12:52:52.139Z,2.87
2017-10-12T12:55:20.324Z,2.50
2017-10-12T12:57:48.825Z,2.70
2017-10-12T13:00:16.372Z,2.12
2017-10-12T13:02:45.874Z,1.90
2017-10-12T13:05:13.655Z,3.13
2017-10-12T13:07:41.191Z,3.10
2017-10-12T13:10:10.425Z,2.23
2017-10-12T13:12:37.932Z,2.70
2017-10-12T13:15:05.649Z,3.10
2017-10-12T13:17:33.191Z,2.20
2017-10-12T13:20:01.459Z,3.00
2017-10-12T13:22:29.560Z,3.30
2017-10-12T13:24:58.803Z,3.17
2017-10-12T13:27:26.317Z,2.65
2017-10-12T13:29:53.817Z,3.17
2017-10-12T13:32:21.724Z,3.90
2017-10-12T13:34:49.239Z,2.47
2017-10-12T13:37:16.775Z,2.77
2017-10-12T13:39:44.318Z,2.90
2017-10-12T13:42:12.826Z,2.67
2017-10-12T13:44:40.319Z,2.47
2017-10-12T13:47:08.235Z,2.28
2017-10-12T13:49:35.749Z,2.70
2017-10-12T13:52:03.324Z,2.75
2017-10-12T13:54:32.141Z,2.43
2017-10-12T13:56:59.668Z,2.17
2017-10-12T13:59:27.221Z,2.12
2017-10-12T14:01:54.855Z,2.60
2017-10-12T14:04:22.491Z,2.40
2017-10-12T14:06:52.021Z,2.58
2017-10-12T14:09:19.564Z,3.37
2017-10-12T14:11:47.548Z,2.90
2017-10-12T14:14:19.211Z,3.05
2017-10-12T14:16:46.827Z,2.20
2017-10-12T14:19:14.342Z,2.50
2017-10-12T14:21:42.755Z,3.00
2017-10-12T14:24:10.679Z,2.72
2017-10-12T14:26:38.247Z,2.20
2017-10-12T14:29:06.546Z,2.87
2017-10-12T14:31:34.054Z,2.30
2017-10-12T14:34:01.612Z,2.20
2017-10-12T14:36:30.283Z,1.87
2017-10-12T14:38:57.825Z,2.77
2017-10-12T14:41:25.427Z,2.83
2017-10-12T14:43:52.991Z,3.23
2017-10-12T14:46:21.055Z,2.28
2017-10-12T14:48:49.099Z,3.92
2017-10-12T14:51:16.602Z,2.10
2017-10-12T14:53:44.195Z,2.40
2017-10-12T14:56:11.960Z,2.60
2017-10-12T14:58:39.555Z,2.67
2017-10-12T15:01:08.671Z,3.38
2017-10-12T15:03:36.201Z,2.80
2017-10-12T15:06:03.751Z,2.97
2017-10-12T15:08:31.529Z,3.03
2017-10-12T15:10:59.060Z,2.87
2017-10-12T15:13:27.567Z,3.50
2017-10-12T15:15:55.263Z,3.47
2017-10-12T15:18:23.072Z,3.62
2017-10-12T15:20:50.596Z,2.90
2017-10-12T15:23:18.860Z,3.35
2017-10-12T15:25:46.448Z,4.47
2017-10-12T15:28:13.971Z,3.07
2017-10-12T15:30:44.963Z,3.40
2017-10-12T15:33:12.468Z,4.55
2017-10-12T15:35:40.023Z,4.10
2017-10-12T15:38:07.544Z,3.95
2017-10-12T15:40:35.704Z,3.87
2017-10-12T15:43:03.268Z,4.10
2017-10-12T15:45:30.795Z,4.13
2017-10-12T15:47:58.351Z,3.57
2017-10-12T15:50:25.955Z,3.40
2017-10-12T15:52:53.476Z,3.90
2017-10-12T15:55:21.869Z,3.67
2017-10-12T15:57:49.596Z,3.60
2017-10-12T16:00:17.324Z,3.93
2017-10-12T16:02:44.884Z,4.35
2017-10-12T16:05:12.437Z,3.90
2017-10-12T16:07:39.999Z,3.93
2017-10-12T16:10:09.223Z,3.67
2017-10-12T16:12:36.785Z,4.10
2017-10-12T16:15:04.328Z,3.47
2017-10-12T16:17:31.928Z,4.45
2017-10-12T16:20:00.502Z,4.13
2017-10-12T16:27:23.790Z,4.43
2017-10-12T16:29:52.636Z,5.80
2017-10-12T16:32:20.139Z,3.70
2017-10-12T16:34:48.049Z,3.73
2017-10-12T16:37:15.624Z,3.30
2017-10-12T16:39:43.126Z,3.97
2017-10-12T16:42:11.178Z,3.90
2017-10-12T16:44:38.814Z,3.40
2017-10-12T16:47:06.558Z,3.87
2017-10-12T16:49:34.095Z,4.62
2017-10-12T16:52:02.374Z,3.20
2017-10-12T16:54:30.639Z,3.87
2017-10-12T16:56:58.144Z,5.10
2017-10-12T16:59:25.954Z,4.40
2017-10-12T17:01:57.255Z,5.60
2017-10-12T17:04:25.531Z,7.00
2017-10-12T17:06:53.103Z,6.93
2017-10-12T17:09:20.611Z,8.60
2017-10-12T17:11:48.446Z,8.25
2017-10-12T17:14:16.609Z,6.57
2017-10-12T17:16:45.222Z,7.57
2017-10-12T17:19:13.257Z,6.67
2017-10-12T17:21:41.364Z,8.68
2017-10-12T17:24:09.807Z,6.20
2017-10-12T17:26:38.161Z,5.77
2017-10-12T17:29:05.704Z,5.37
2017-10-12T17:31:33.995Z,5.53
2017-10-12T17:34:01.495Z,5.20
2017-10-12T17:36:29.002Z,5.73
2017-10-12T17:38:57.912Z,8.30
2017-10-12T17:41:25.727Z,7.33
2017-10-12T17:46:20.987Z,7.00
2017-10-12T17:48:48.490Z,6.33
2017-10-12T17:51:16.057Z,7.50
2017-10-12T17:53:43.968Z,5.60
2017-10-12T17:56:12.369Z,5.42
2017-10-12T17:58:40.223Z,6.65
2017-10-12T18:01:07.727Z,5.40
2017-10-12T18:03:35.788Z,6.07
2017-10-12T18:06:07.668Z,5.80
2017-10-12T18:08:35.613Z,6.12
2017-10-12T18:11:03.152Z,5.47
2017-10-12T18:13:30.693Z,6.30
2017-10-12T18:15:58.296Z,7.90
2017-10-12T18:18:30.744Z,7.17
2017-10-12T18:21:01.581Z,7.20
2017-10-12T18:23:29.154Z,8.18
2017-10-12T18:25:57.119Z,6.80
2017-10-12T18:28:24.838Z,5.75
2017-10-12T18:30:52.368Z,6.93
2017-10-12T18:33:20.041Z,6.07
2017-10-12T18:35:51.522Z,6.47
2017-10-12T18:38:19.319Z,6.73
2017-10-12T18:40:47.178Z,6.33
2017-10-12T18:43:14.683Z,6.07
2017-10-12T18:45:42.203Z,5.13
2017-10-12T18:48:09.697Z,6.20
2017-10-12T18:50:37.252Z,5.17
2017-10-12T18:53:04.788Z,6.63
2017-10-12T18:55:32.425Z,6.33
2017-10-12T18:58:01.197Z,5.60
2017-10-12T19:00:28.752Z,5.30
2017-10-12T19:02:56.247Z,6.83
2017-10-12T19:05:23.795Z,6.12
2017-10-12T19:07:51.315Z,7.22
2017-10-12T19:10:19.474Z,5.80
2017-10-12T19:15:14.557Z,5.93
2017-10-12T19:17:42.140Z,4.93
2017-10-12T19:20:09.657Z,5.53
2017-10-12T19:22:37.787Z,5.67
2017-10-12T19:25:05.372Z,6.80
2017-10-12T19:27:34.189Z,7.53
2017-10-12T19:30:01.713Z,6.60
2017-10-12T19:32:29.611Z,6.00
2017-10-12T19:34:57.799Z,5.95
2017-10-12T19:37:25.310Z,6.50
2017-10-12T19:39:52.870Z,5.20
2017-10-12T19:42:21.705Z,4.93
2017-10-12T19:44:49.224Z,5.90
2017-10-12T19:47:17.951Z,5.07
2017-10-12T19:49:45.472Z,5.07
2017-10-12T19:52:13.774Z,5.35
2017-10-12T19:54:43.174Z,5.75
2017-10-12T19:57:11.622Z,5.80
2017-10-12T19:59:39.591Z,6.57
2017-10-12T20:02:07.899Z,6.40
2017-10-12T20:04:35.578Z,7.33
2017-10-12T20:07:03.233Z,6.20
2017-10-12T20:09:31.908Z,7.00
2017-10-12T20:11:59.432Z,6.37
2017-10-12T20:14:26.938Z,6.63
2017-10-12T20:16:54.471Z,6.40
2017-10-12T20:19:22.047Z,5.28
2017-10-12T20:21:50.937Z,6.60
2017-10-12T20:26:46.140Z,6.47
2017-10-12T20:31:41.227Z,6.67
2017-10-12T20:34:10.328Z,6.35
2017-10-12T20:36:37.847Z,6.20
2017-10-12T20:39:05.399Z,5.70
2017-10-12T20:41:33.836Z,6.15
2017-10-12T20:44:01.720Z,6.12
2017-10-12T20:46:29.239Z,6.05
2017-10-12T20:48:56.798Z,6.72
2017-10-12T20:51:25.067Z,7.33
2017-10-12T20:53:54.079Z,7.25
2017-10-12T20:56:23.323Z,7.40
2017-10-12T20:58:50.863Z,7.83
2017-10-12T21:01:18.384Z,7.57
2017-10-12T21:03:45.913Z,7.90
2017-10-12T21:06:21.448Z,7.70
2017-10-12T21:08:49.180Z,7.57
2017-10-12T21:11:16.739Z,6.65
2017-10-12T21:13:45.028Z,8.93
2017-10-12T21:16:13.216Z,6.47
2017-10-12T21:18:40.751Z,7.55
2017-10-12T21:21:08.326Z,6.63
2017-10-12T21:23:36.083Z,6.00
2017-10-12T21:26:03.614Z,6.77
2017-10-12T21:28:32.828Z,6.73
2017-10-12T21:31:00.331Z,6.20
2017-10-12T21:33:27.872Z,6.70
2017-10-12T21:35:55.377Z,6.40
2017-10-12T21:38:22.915Z,7.03
2017-10-12T21:40:50.987Z,6.00
2017-10-12T21:43:18.533Z,6.30
2017-10-12T21:45:46.047Z,6.77
2017-10-12T21:48:14.352Z,5.60
2017-10-12T21:50:41.856Z,5.13
2017-10-12T21:53:09.415Z,5.90
2017-10-12T21:55:37.695Z,6.30
2017-10-12T21:58:06.299Z,6.32
2017-10-12T22:00:34.052Z,6.20
2017-10-12T22:03:02.417Z,5.85
2017-10-12T22:05:30.019Z,5.85
2017-10-12T22:07:57.563Z,5.80
2017-10-12T22:10:25.257Z,6.20
2017-10-12T22:12:53.461Z,5.57
2017-10-12T22:15:21.022Z,5.87
2017-10-12T22:17:49.656Z,5.45
2017-10-12T22:20:17.217Z,6.50
2017-10-12T22:22:44.739Z,5.50
2017-10-12T22:25:12.295Z,7.10
2017-10-12T22:27:40.428Z,5.57
2017-10-12T22:30:09.638Z,5.90
2017-10-12T22:32:37.193Z,5.20
2017-10-12T22:35:04.764Z,6.97
2017-10-12T22:37:32.812Z,6.62
2017-10-12T22:40:00.322Z,5.67
2017-10-12T22:42:28.643Z,5.90
2017-10-12T22:44:56.412Z,6.10
2017-10-12T22:47:23.948Z,5.70
2017-10-12T22:49:52.176Z,5.85
2017-10-12T22:52:19.724Z,7.20
2017-10-12T22:54:47.274Z,5.80
2017-10-12T22:57:14.775Z,5.78
2017-10-12T22:59:42.284Z,5.20
2017-10-12T23:02:09.840Z,5.17
2017-10-12T23:04:37.360Z,6.13
2017-10-12T23:07:06.572Z,5.45
2017-10-12T23:09:34.939Z,6.50
2017-10-12T23:12:03.330Z,5.50
2017-10-12T23:14:31.003Z,6.20
2017-10-12T23:16:58.510Z,6.50
2017-10-12T23:19:26.028Z,7.53
2017-10-12T23:21:53.587Z,7.53
2017-10-12T23:24:21.098Z,8.20
2017-10-12T23:26:53.264Z,8.07
2017-10-12T23:29:20.811Z,7.47
2017-10-12T23:31:48.998Z,7.03
2017-10-12T23:34:18.055Z,7.57
2017-10-12T23:36:45.574Z,7.63
2017-10-12T23:39:17.264Z,7.20
2017-10-12T23:41:45.111Z,6.50
2017-10-12T23:44:12.623Z,7.37
2017-10-12T23:46:40.129Z,7.40
2017-10-12T23:49:07.704Z,7.50
2017-10-12T23:51:35.212Z,8.63
2017-10-12T23:54:07.539Z,7.70
2017-10-12T23:56:35.398Z,6.90
2017-10-12T23:59:02.975Z,6.80
